Time;durP1;ratioP1;P1;durP2;ratioP2;P2;SDS_P1;SDS_P2;PMS_P1;PMS_P2;Temp;Humidity;BMP_temperature;BMP_pressure;BME280_temperature;BME280_humidity;BME280_pressure;Samples;Min_cycle;Max_cycle;Signal;HPM_P1;HPM_P2
2023/09/08 00:01:57;;;;;;;14.07;8.93;;;;;;;;;;5054009;28;20040;-64
2023/09/08 00:04:23;;;;;;;11.95;9.05;;;;;;;;;;5053635;28;20532;-65
2023/09/08 00:06:50;;;;;;;13.57;9.80;;;;;;;;;;5052459;28;20123;-64
2023/09/08 00:09:16;;;;;;;11.38;9.30;;;;;;;;;;5049132;28;20142;-64
2023/09/08 00:11:42;;;;;;;14.35;9.88;;;;;;;;;;5051615;28;20052;-65
2023/09/08 00:14:08;;;;;;;10.38;8.95;;;;;;;;;;5052462;28;20287;-64
2023/09/08 00:16:34;;;;;;;12.07;9.50;;;;;;;;;;5052342;28;20040;-64
2023/09/08 00:19:00;;;;;;;11.60;9.65;;;;;;;;;;5052527;28;20032;-64
2023/09/08 00:21:27;;;;;;;13.02;10.23;;;;;;;;;;5052704;28;20040;-64
2023/09/08 00:23:53;;;;;;;14.07;10.40;;;;;;;;;;5053362;28;20047;-64
2023/09/08 00:26:19;;;;;;;17.45;11.13;;;;;;;;;;5052591;28;20090;-64
2023/09/08 00:28:46;;;;;;;13.98;11.80;;;;;;;;;;5053608;28;20483;-64
2023/09/08 00:31:12;;;;;;;12.48;10.20;;;;;;;;;;5053460;28;20601;-64
2023/09/08 00:33:38;;;;;;;12.18;10.48;;;;;;;;;;5053755;28;20024;-64
2023/09/08 00:36:04;;;;;;;13.57;10.40;;;;;;;;;;5053196;28;20027;-64
2023/09/08 00:38:30;;;;;;;15.57;10.73;;;;;;;;;;5053135;28;20027;-64
2023/09/08 00:40:56;;;;;;;12.85;10.60;;;;;;;;;;5052751;28;20036;-64
2023/09/08 00:43:22;;;;;;;12.52;9.93;;;;;;;;;;5053250;28;20123;-65
2023/09/08 00:45:48;;;;;;;13.63;11.02;;;;;;;;;;5053027;28;20150;-65
2023/09/08 00:48:14;;;;;;;14.02;10.40;;;;;;;;;;5053593;28;21357;-64
2023/09/08 00:50:41;;;;;;;14.43;10.73;;;;;;;;;;5052487;28;20486;-64
2023/09/08 00:53:08;;;;;;;13.05;9.73;;;;;;;;;;5053151;28;20028;-64
2023/09/08 00:55:34;;;;;;;13.73;10.43;;;;;;;;;;5052403;28;20077;-64
2023/09/08 00:58:01;;;;;;;12.10;10.45;;;;;;;;;;5052382;28;20043;-64
2023/09/08 01:00:27;;;;;;;15.90;11.13;;;;;;;;;;5050954;28;20114;-64
2023/09/08 01:02:54;;;;;;;15.75;10.90;;;;;;;;;;5051643;28;20045;-64
2023/09/08 01:05:24;;;;;;;12.45;10.57;;;;;;;;;;5051719;28;20028;-64
2023/09/08 01:07:53;;;;;;;13.10;10.38;;;;;;;;;;5050923;28;21887;-64
2023/09/08 01:10:19;;;;;;;16.50;10.80;;;;;;;;;;5052150;28;20062;-64
2023/09/08 01:12:45;;;;;;;12.25;10.30;;;;;;;;;;5052473;28;20569;-64
2023/09/08 01:15:12;;;;;;;11.77;9.25;;;;;;;;;;5051321;28;20047;-64
2023/09/08 01:17:39;;;;;;;14.00;9.52;;;;;;;;;;5052456;28;20103;-64
2023/09/08 01:20:17;;;;;;;16.77;8.95;;;;;;;;;;5052332;28;20331;-64
2023/09/08 01:22:43;;;;;;;13.35;8.82;;;;;;;;;;5051879;28;20036;-64
2023/09/08 01:25:15;;;;;;;15.35;10.02;;;;;;;;;;5049591;28;20686;-64
2023/09/08 01:27:45;;;;;;;12.73;9.63;;;;;;;;;;5051336;28;20089;-64
2023/09/08 01:30:12;;;;;;;11.32;9.07;;;;;;;;;;5051840;28;20850;-64
2023/09/08 01:32:39;;;;;;;10.48;8.18;;;;;;;;;;5051996;28;20036;-64
2023/09/08 01:35:05;;;;;;;12.48;8.57;;;;;;;;;;5052100;28;20036;-64
2023/09/08 01:37:31;;;;;;;12.77;8.75;;;;;;;;;;5051654;28;20036;-64
2023/09/08 01:39:58;;;;;;;11.15;8.40;;;;;;;;;;5051863;28;20033;-64
2023/09/08 01:42:24;;;;;;;9.65;8.10;;;;;;;;;;5052204;28;20028;-64
2023/09/08 01:44:50;;;;;;;13.00;8.88;;;;;;;;;;5052329;28;20246;-64
2023/09/08 01:47:16;;;;;;;11.60;8.30;;;;;;;;;;5051644;28;20028;-64
2023/09/08 01:49:42;;;;;;;13.05;8.27;;;;;;;;;;5051682;28;20037;-64
2023/09/08 01:52:08;;;;;;;10.63;8.35;;;;;;;;;;5051837;28;20028;-64
2023/09/08 01:54:34;;;;;;;12.15;9.77;;;;;;;;;;5051698;28;20024;-64
2023/09/08 01:57:00;;;;;;;10.70;8.85;;;;;;;;;;5049442;28;20032;-64
2023/09/08 01:59:26;;;;;;;10.68;8.23;;;;;;;;;;5051468;28;20040;-65
2023/09/08 02:01:52;;;;;;;11.70;8.05;;;;;;;;;;5051961;28;20068;-64
2023/09/08 02:04:18;;;;;;;10.13;7.65;;;;;;;;;;5051814;28;20180;-64
2023/09/08 02:06:44;;;;;;;12.25;8.82;;;;;;;;;;5051827;28;20087;-64
2023/09/08 02:09:12;;;;;;;12.80;8.93;;;;;;;;;;5051383;28;20709;-65
2023/09/08 02:11:38;;;;;;;11.30;8.45;;;;;;;;;;5052892;28;20036;-64
2023/09/08 02:14:04;;;;;;;10.10;8.32;;;;;;;;;;5051487;28;20406;-64
2023/09/08 02:16:30;;;;;;;10.88;8.52;;;;;;;;;;5050747;28;20032;-64
2023/09/08 02:18:56;;;;;;;11.30;7.50;;;;;;;;;;5049221;28;20147;-65
2023/09/08 02:21:22;;;;;;;9.77;7.50;;;;;;;;;;5048499;28;20032;-64
2023/09/08 02:23:48;;;;;;;11.85;8.15;;;;;;;;;;5051216;28;20559;-64
2023/09/08 02:26:16;;;;;;;10.65;8.18;;;;;;;;;;5049838;28;20596;-64
2023/09/08 02:28:43;;;;;;;13.80;8.57;;;;;;;;;;5049654;28;20040;-64
2023/09/08 02:31:09;;;;;;;9.65;7.65;;;;;;;;;;5049859;28;20072;-64
2023/09/08 02:33:35;;;;;;;12.32;8.20;;;;;;;;;;5050313;28;20043;-64
2023/09/08 02:36:05;;;;;;;11.43;8.13;;;;;;;;;;5050869;28;20059;-64
2023/09/08 02:38:32;;;;;;;11.27;7.78;;;;;;;;;;5051633;28;20031;-64
2023/09/08 02:40:58;;;;;;;9.90;7.97;;;;;;;;;;5051157;28;20036;-64
2023/09/08 02:43:24;;;;;;;11.25;7.90;;;;;;;;;;5046723;28;20047;-65
2023/09/08 02:45:50;;;;;;;10.77;7.45;;;;;;;;;;5051316;28;20040;-64
2023/09/08 02:48:16;;;;;;;13.98;8.50;;;;;;;;;;5051650;28;20077;-64
2023/09/08 02:50:42;;;;;;;10.63;8.00;;;;;;;;;;5051279;28;20128;-64
2023/09/08 02:53:08;;;;;;;10.25;8.18;;;;;;;;;;5051812;28;20240;-64
2023/09/08 02:55:34;;;;;;;10.27;7.57;;;;;;;;;;5051262;28;20082;-64
2023/09/08 02:58:00;;;;;;;10.15;7.18;;;;;;;;;;5051438;28;20063;-64
2023/09/08 03:00:27;;;;;;;11.93;7.70;;;;;;;;;;5051342;28;20040;-64
2023/09/08 03:02:53;;;;;;;9.75;7.22;;;;;;;;;;5050546;28;20040;-64
2023/09/08 03:05:19;;;;;;;9.85;7.50;;;;;;;;;;5050947;28;20044;-64
2023/09/08 03:07:48;;;;;;;11.10;8.20;;;;;;;;;;5051131;28;20766;-64
2023/09/08 03:10:14;;;;;;;12.70;8.32;;;;;;;;;;5051789;28;20059;-64
2023/09/08 03:12:40;;;;;;;14.50;9.02;;;;;;;;;;5050638;28;20028;-64
2023/09/08 03:15:07;;;;;;;10.80;7.88;;;;;;;;;;5051635;28;20030;-64
2023/09/08 03:17:33;;;;;;;11.05;7.70;;;;;;;;;;5051550;28;20112;-64
2023/09/08 03:19:59;;;;;;;12.13;7.90;;;;;;;;;;5050874;28;20032;-64
2023/09/08 03:22:25;;;;;;;9.98;7.70;;;;;;;;;;5050780;28;20031;-64
2023/09/08 03:24:52;;;;;;;10.52;7.25;;;;;;;;;;5051014;28;20025;-64
2023/09/08 03:27:18;;;;;;;11.57;7.28;;;;;;;;;;5050560;28;20040;-64
2023/09/08 03:29:44;;;;;;;9.50;7.85;;;;;;;;;;5050361;28;20032;-64
2023/09/08 03:32:10;;;;;;;11.65;7.72;;;;;;;;;;5054045;28;20743;-64
2023/09/08 03:34:39;;;;;;;13.20;8.45;;;;;;;;;;5055775;28;20122;-64
2023/09/08 03:37:05;;;;;;;11.27;8.52;;;;;;;;;;5055713;28;20028;-64
2023/09/08 03:39:31;;;;;;;11.80;7.90;;;;;;;;;;5055278;28;20498;-64
2023/09/08 03:41:57;;;;;;;10.45;8.20;;;;;;;;;;5058155;28;20994;-64
2023/09/08 03:44:23;;;;;;;10.52;7.78;;;;;;;;;;5059672;28;20081;-64
2023/09/08 03:46:50;;;;;;;11.13;8.13;;;;;;;;;;5059646;28;21738;-64
2023/09/08 03:49:16;;;;;;;14.30;7.70;;;;;;;;;;5060169;28;20915;-64
2023/09/08 03:51:42;;;;;;;10.38;7.82;;;;;;;;;;5059184;28;20518;-64
2023/09/08 03:54:08;;;;;;;11.02;7.57;;;;;;;;;;5059593;28;20557;-64
2023/09/08 03:56:34;;;;;;;10.32;7.70;;;;;;;;;;5058623;28;20048;-64
2023/09/08 03:59:00;;;;;;;9.75;7.72;;;;;;;;;;5059012;28;20036;-64
2023/09/08 04:01:26;;;;;;;8.98;7.40;;;;;;;;;;5059106;28;20040;-64
2023/09/08 04:03:52;;;;;;;10.27;8.50;;;;;;;;;;5059425;28;20036;-64
2023/09/08 04:06:18;;;;;;;9.30;7.72;;;;;;;;;;5059537;28;20029;-64
2023/09/08 04:08:44;;;;;;;12.27;7.18;;;;;;;;;;5059050;28;20043;-64
2023/09/08 04:11:10;;;;;;;9.90;7.93;;;;;;;;;;5059147;28;20043;-64
2023/09/08 04:13:36;;;;;;;10.90;7.90;;;;;;;;;;5058578;28;20122;-64
2023/09/08 04:16:02;;;;;;;11.43;8.10;;;;;;;;;;5059295;28;20047;-64
2023/09/08 04:18:28;;;;;;;11.45;8.43;;;;;;;;;;5058862;28;20958;-64
2023/09/08 04:20:54;;;;;;;10.00;8.10;;;;;;;;;;5058288;28;20040;-64
2023/09/08 04:23:20;;;;;;;11.25;7.78;;;;;;;;;;5058254;28;20036;-64
2023/09/08 04:25:46;;;;;;;10.13;8.32;;;;;;;;;;5057652;28;21880;-65
2023/09/08 04:28:12;;;;;;;10.52;7.38;;;;;;;;;;5056704;28;21087;-65
2023/09/08 04:30:39;;;;;;;11.15;8.20;;;;;;;;;;5055721;28;20044;-64
2023/09/08 04:33:05;;;;;;;11.13;8.27;;;;;;;;;;5057550;28;20040;-64
2023/09/08 04:35:31;;;;;;;11.95;8.38;;;;;;;;;;5056565;28;20043;-69
2023/09/08 04:37:57;;;;;;;11.07;7.88;;;;;;;;;;5057730;28;20044;-69
2023/09/08 04:40:23;;;;;;;12.88;8.75;;;;;;;;;;5055964;28;20032;-69
2023/09/08 04:42:49;;;;;;;13.75;8.40;;;;;;;;;;5058224;28;20158;-69
2023/09/08 04:45:15;;;;;;;11.95;8.38;;;;;;;;;;5057980;28;20155;-69
2023/09/08 04:47:41;;;;;;;12.38;8.10;;;;;;;;;;5058297;28;20063;-69
2023/09/08 04:50:08;;;;;;;11.82;8.68;;;;;;;;;;5073891;28;21104;-69
2023/09/08 04:52:34;;;;;;;10.02;8.15;;;;;;;;;;5057928;28;20028;-69
2023/09/08 04:55:00;;;;;;;11.05;8.63;;;;;;;;;;5057469;28;20075;-69
2023/09/08 04:57:26;;;;;;;12.85;8.80;;;;;;;;;;5055888;28;20135;-69
2023/09/08 04:59:52;;;;;;;13.35;8.40;;;;;;;;;;5056143;28;20056;-69
2023/09/08 05:02:18;;;;;;;12.40;9.05;;;;;;;;;;5056857;28;20147;-69
2023/09/08 05:04:44;;;;;;;12.63;8.20;;;;;;;;;;5057503;28;20161;-69
2023/09/08 05:07:12;;;;;;;10.73;8.50;;;;;;;;;;5056690;28;20035;-69
2023/09/08 05:09:38;;;;;;;16.33;8.80;;;;;;;;;;5057091;28;20085;-69
2023/09/08 05:12:05;;;;;;;11.88;8.10;;;;;;;;;;5055645;28;20039;-69
2023/09/08 05:14:31;;;;;;;9.90;7.93;;;;;;;;;;5057269;28;20496;-69
2023/09/08 05:16:57;;;;;;;14.57;8.23;;;;;;;;;;5057464;28;20078;-69
2023/09/08 05:19:23;;;;;;;13.35;8.02;;;;;;;;;;5056849;28;20078;-69
2023/09/08 05:21:54;;;;;;;13.23;8.10;;;;;;;;;;5056068;28;20584;-69
2023/09/08 05:24:20;;;;;;;11.40;7.38;;;;;;;;;;5056872;28;20028;-69
2023/09/08 05:26:46;;;;;;;10.35;8.35;;;;;;;;;;5056637;28;20064;-69
2023/09/08 05:29:13;;;;;;;10.82;8.60;;;;;;;;;;5056710;28;20028;-69
2023/09/08 05:31:39;;;;;;;11.93;7.97;;;;;;;;;;5054375;28;20059;-69
2023/09/08 05:34:05;;;;;;;11.55;9.45;;;;;;;;;;5055906;28;20027;-69
2023/09/08 05:36:32;;;;;;;11.60;8.38;;;;;;;;;;5056917;28;20032;-69
2023/09/08 05:39:00;;;;;;;14.00;8.23;;;;;;;;;;5056457;28;20043;-69
2023/09/08 05:41:26;;;;;;;11.98;8.63;;;;;;;;;;5055884;28;20039;-69
2023/09/08 05:43:52;;;;;;;9.80;7.75;;;;;;;;;;5052344;28;20029;-69
2023/09/08 05:46:18;;;;;;;11.38;8.55;;;;;;;;;;5054319;28;20040;-69
2023/09/08 05:48:47;;;;;;;10.77;8.30;;;;;;;;;;5055954;28;20111;-68
2023/09/08 05:51:14;;;;;;;9.60;7.30;;;;;;;;;;5055210;28;20029;-69
2023/09/08 05:53:40;;;;;;;10.82;8.02;;;;;;;;;;5056523;28;20028;-69
2023/09/08 05:56:07;;;;;;;9.73;7.68;;;;;;;;;;5055470;28;20032;-69
2023/09/08 05:58:33;;;;;;;10.63;8.27;;;;;;;;;;5055938;28;20032;-68
2023/09/08 06:01:02;;;;;;;10.70;8.38;;;;;;;;;;5055257;28;20668;-69
2023/09/08 06:03:29;;;;;;;11.98;7.97;;;;;;;;;;5053849;28;20063;-69
2023/09/08 06:05:55;;;;;;;9.88;7.63;;;;;;;;;;5056369;28;20040;-69
2023/09/08 06:08:21;;;;;;;11.07;8.60;;;;;;;;;;5055754;28;20071;-69
2023/09/08 06:10:50;;;;;;;10.48;8.07;;;;;;;;;;5055169;28;20036;-69
2023/09/08 06:13:16;;;;;;;11.10;8.13;;;;;;;;;;5056626;28;20024;-69
2023/09/08 06:15:42;;;;;;;11.95;8.07;;;;;;;;;;5056654;28;20593;-69
2023/09/08 06:18:09;;;;;;;12.63;8.32;;;;;;;;;;5056528;28;20584;-68
2023/09/08 06:20:35;;;;;;;11.48;8.30;;;;;;;;;;5056115;28;20139;-69
2023/09/08 06:23:01;;;;;;;9.60;7.93;;;;;;;;;;5056401;28;20101;-68
2023/09/08 06:25:28;;;;;;;10.20;7.75;;;;;;;;;;5055738;28;20036;-68
2023/09/08 06:27:54;;;;;;;11.93;7.70;;;;;;;;;;5056558;28;20105;-68
2023/09/08 06:30:20;;;;;;;14.45;8.07;;;;;;;;;;5056480;28;20059;-68
2023/09/08 06:32:46;;;;;;;12.65;7.22;;;;;;;;;;5056092;28;20481;-68
2023/09/08 06:35:12;;;;;;;11.15;7.93;;;;;;;;;;5054553;28;20029;-69
2023/09/08 06:37:39;;;;;;;12.23;7.35;;;;;;;;;;5054434;28;20925;-69
2023/09/08 06:40:06;;;;;;;10.30;8.18;;;;;;;;;;5054786;28;20038;-68
2023/09/08 06:42:32;;;;;;;9.57;7.55;;;;;;;;;;5053721;28;20067;-68
2023/09/08 06:44:59;;;;;;;12.10;7.93;;;;;;;;;;5055417;28;20040;-68
2023/09/08 06:47:25;;;;;;;11.70;7.45;;;;;;;;;;5053305;28;20024;-68
2023/09/08 06:49:51;;;;;;;14.00;7.70;;;;;;;;;;5056333;28;21739;-68
2023/09/08 06:52:18;;;;;;;10.15;7.57;;;;;;;;;;5056021;28;20043;-68
2023/09/08 06:54:47;;;;;;;12.00;7.40;;;;;;;;;;5056854;28;20052;-68
2023/09/08 06:57:13;;;;;;;11.45;7.75;;;;;;;;;;5056286;28;20028;-68
2023/09/08 06:59:39;;;;;;;11.52;7.75;;;;;;;;;;5056179;28;20032;-68
2023/09/08 07:02:06;;;;;;;10.30;7.45;;;;;;;;;;5056745;28;20074;-68
2023/09/08 07:04:33;;;;;;;10.75;7.85;;;;;;;;;;5054458;28;20035;-68
2023/09/08 07:07:06;;;;;;;9.50;7.75;;;;;;;;;;5052908;28;20032;-68
2023/09/08 07:09:33;;;;;;;9.77;7.75;;;;;;;;;;5053578;28;20051;-68
2023/09/08 07:11:59;;;;;;;10.38;7.30;;;;;;;;;;5054408;28;20036;-68
2023/09/08 07:14:25;;;;;;;11.00;7.03;;;;;;;;;;5054184;28;20131;-68
2023/09/08 07:16:51;;;;;;;8.95;7.25;;;;;;;;;;5058290;28;20028;-68
2023/09/08 07:19:18;;;;;;;9.02;7.28;;;;;;;;;;5057888;28;20044;-68
2023/09/08 07:21:44;;;;;;;11.65;7.38;;;;;;;;;;5058013;28;20116;-68
2023/09/08 07:24:10;;;;;;;13.52;7.47;;;;;;;;;;5058009;28;20165;-68
2023/09/08 07:26:36;;;;;;;14.10;7.55;;;;;;;;;;5057505;28;20032;-68
2023/09/08 07:29:02;;;;;;;9.57;6.72;;;;;;;;;;5052572;28;20043;-68
2023/09/08 07:31:29;;;;;;;15.52;8.02;;;;;;;;;;5058140;28;20105;-68
2023/09/08 07:33:55;;;;;;;11.50;7.55;;;;;;;;;;5056989;28;20036;-68
2023/09/08 07:36:21;;;;;;;9.85;6.78;;;;;;;;;;5058648;28;20123;-68
2023/09/08 07:38:49;;;;;;;8.90;6.43;;;;;;;;;;5058165;28;20031;-68
2023/09/08 07:41:15;;;;;;;10.63;6.95;;;;;;;;;;5058550;28;20036;-68
2023/09/08 07:43:45;;;;;;;11.70;7.25;;;;;;;;;;5057672;28;20907;-68
2023/09/08 07:46:12;;;;;;;11.40;6.50;;;;;;;;;;5057761;28;20167;-68
2023/09/08 07:48:39;;;;;;;9.00;6.55;;;;;;;;;;5056056;28;20151;-68
2023/09/08 07:51:05;;;;;;;10.38;5.88;;;;;;;;;;5057814;28;21103;-68
2023/09/08 07:53:32;;;;;;;9.00;6.13;;;;;;;;;;5058383;28;20398;-68
2023/09/08 07:55:58;;;;;;;8.50;5.88;;;;;;;;;;5057526;28;20059;-68
2023/09/08 07:58:25;;;;;;;10.52;6.47;;;;;;;;;;5058031;28;20051;-68
2023/09/08 08:00:51;;;;;;;12.00;6.68;;;;;;;;;;5057747;28;20090;-68
2023/09/08 08:03:17;;;;;;;9.32;6.80;;;;;;;;;;5057411;28;20024;-68
2023/09/08 08:05:43;;;;;;;11.02;6.47;;;;;;;;;;5058214;28;20045;-68
2023/09/08 08:08:09;;;;;;;12.85;6.07;;;;;;;;;;5058636;28;20032;-68
2023/09/08 08:10:36;;;;;;;10.07;5.85;;;;;;;;;;5058462;28;20612;-68
2023/09/08 08:13:02;;;;;;;8.85;6.18;;;;;;;;;;5052980;28;20538;-68
2023/09/08 08:15:42;;;;;;;9.63;5.55;;;;;;;;;;5058173;28;20031;-68
2023/09/08 08:18:09;;;;;;;9.45;6.43;;;;;;;;;;5056448;28;20483;-68
2023/09/08 08:20:36;;;;;;;9.05;5.97;;;;;;;;;;5058252;28;20032;-68
2023/09/08 08:23:02;;;;;;;12.45;6.03;;;;;;;;;;5058511;28;20201;-68
2023/09/08 08:25:28;;;;;;;8.65;5.90;;;;;;;;;;5057965;28;20033;-68
2023/09/08 08:28:00;;;;;;;8.98;6.20;;;;;;;;;;5057162;28;20067;-68
2023/09/08 08:30:26;;;;;;;10.77;5.70;;;;;;;;;;5057706;28;20075;-68
2023/09/08 08:32:53;;;;;;;9.70;5.85;;;;;;;;;;5058238;28;20036;-68
2023/09/08 08:35:21;;;;;;;8.13;5.35;;;;;;;;;;5057881;28;20043;-68
2023/09/08 08:37:47;;;;;;;13.15;4.88;;;;;;;;;;5058237;28;20080;-69
2023/09/08 08:40:14;;;;;;;10.38;5.70;;;;;;;;;;5057873;28;20020;-68
2023/09/08 08:42:40;;;;;;;9.98;5.00;;;;;;;;;;5056587;28;20518;-68
2023/09/08 08:45:07;;;;;;;9.82;5.00;;;;;;;;;;5055668;28;20047;-69
2023/09/08 08:47:33;;;;;;;12.63;4.72;;;;;;;;;;5055432;28;20065;-68
2023/09/08 08:50:00;;;;;;;8.05;4.47;;;;;;;;;;5057284;28;20028;-68
2023/09/08 08:52:26;;;;;;;8.13;4.75;;;;;;;;;;5057388;28;20039;-68
2023/09/08 08:54:53;;;;;;;8.00;4.35;;;;;;;;;;5056845;28;20584;-68
2023/09/08 08:57:20;;;;;;;8.30;4.75;;;;;;;;;;5057390;28;20719;-68
2023/09/08 08:59:46;;;;;;;14.80;5.43;;;;;;;;;;5057327;28;20158;-68
2023/09/08 09:02:14;;;;;;;8.52;4.45;;;;;;;;;;5057553;28;20036;-68
2023/09/08 09:04:40;;;;;;;7.15;4.32;;;;;;;;;;5057789;28;20043;-69
2023/09/08 09:07:07;;;;;;;10.25;4.25;;;;;;;;;;5057338;28;20032;-68
2023/09/08 09:09:33;;;;;;;8.00;4.40;;;;;;;;;;5057463;28;20167;-68
2023/09/08 09:12:02;;;;;;;9.40;4.55;;;;;;;;;;5057543;28;20021;-68
2023/09/08 09:14:28;;;;;;;7.88;4.53;;;;;;;;;;5058188;28;20823;-68
2023/09/08 09:16:57;;;;;;;7.43;4.22;;;;;;;;;;5057276;28;20032;-68
2023/09/08 09:19:28;;;;;;;7.00;4.70;;;;;;;;;;5057660;28;20083;-68
2023/09/08 09:21:55;;;;;;;10.07;4.78;;;;;;;;;;5056572;28;20027;-68
2023/09/08 09:24:34;;;;;;;7.05;3.78;;;;;;;;;;5057348;28;20040;-68
2023/09/08 09:27:00;;;;;;;7.65;4.45;;;;;;;;;;5057044;28;20036;-68
2023/09/08 09:29:27;;;;;;;6.65;3.70;;;;;;;;;;5057429;28;20526;-68
2023/09/08 09:31:54;;;;;;;7.03;4.60;;;;;;;;;;5056297;28;20044;-68
2023/09/08 09:34:21;;;;;;;9.85;5.03;;;;;;;;;;5055417;28;20028;-68
2023/09/08 09:36:51;;;;;;;6.28;3.95;;;;;;;;;;5056744;28;21708;-68
2023/09/08 09:39:18;;;;;;;7.47;4.50;;;;;;;;;;5053955;28;20119;-68
2023/09/08 09:41:44;;;;;;;8.57;4.10;;;;;;;;;;5056912;28;20051;-68
2023/09/08 09:44:11;;;;;;;8.55;5.03;;;;;;;;;;5057351;28;20494;-68
2023/09/08 09:46:37;;;;;;;9.27;4.85;;;;;;;;;;5056892;28;20063;-68
2023/09/08 09:49:03;;;;;;;8.43;4.70;;;;;;;;;;5056631;28;20236;-68
2023/09/08 09:51:30;;;;;;;6.18;4.00;;;;;;;;;;5056721;28;20066;-68
2023/09/08 09:53:58;;;;;;;7.45;4.25;;;;;;;;;;5056684;28;20039;-68
2023/09/08 09:56:24;;;;;;;7.25;4.30;;;;;;;;;;5051365;28;20054;-68
2023/09/08 09:58:54;;;;;;;9.60;4.82;;;;;;;;;;5056453;28;20422;-69
2023/09/08 10:01:20;;;;;;;8.00;4.70;;;;;;;;;;5054768;28;20043;-68
2023/09/08 10:03:48;;;;;;;8.23;4.00;;;;;;;;;;5056397;28;20399;-68
2023/09/08 10:06:15;;;;;;;7.03;3.95;;;;;;;;;;5057034;28;20082;-68
2023/09/08 10:08:42;;;;;;;7.43;4.45;;;;;;;;;;5057043;28;20058;-68
2023/09/08 10:11:09;;;;;;;11.82;4.43;;;;;;;;;;5056139;28;20440;-68
2023/09/08 10:13:42;;;;;;;8.30;4.43;;;;;;;;;;5056312;28;20062;-68
2023/09/08 10:16:09;;;;;;;7.05;3.75;;;;;;;;;;5057353;28;20132;-68
2023/09/08 10:18:36;;;;;;;7.80;4.10;;;;;;;;;;5057180;28;20414;-68
2023/09/08 10:21:04;;;;;;;7.78;4.03;;;;;;;;;;5056209;28;20040;-68
2023/09/08 10:23:42;;;;;;;6.75;4.43;;;;;;;;;;5056839;28;20039;-68
2023/09/08 10:26:10;;;;;;;7.68;3.90;;;;;;;;;;5056701;28;20752;-68
2023/09/08 10:28:37;;;;;;;7.50;4.13;;;;;;;;;;5056523;28;20032;-68
2023/09/08 10:31:03;;;;;;;6.85;4.45;;;;;;;;;;5056950;28;20069;-68
2023/09/08 10:33:30;;;;;;;8.18;4.05;;;;;;;;;;5056373;28;20055;-68
2023/09/08 10:35:57;;;;;;;9.32;4.10;;;;;;;;;;5056938;28;20663;-68
2023/09/08 10:38:26;;;;;;;9.05;4.00;;;;;;;;;;5056737;28;20643;-68
2023/09/08 10:40:53;;;;;;;6.30;3.97;;;;;;;;;;5056783;28;20055;-68
2023/09/08 10:43:20;;;;;;;5.93;3.97;;;;;;;;;;5056739;28;20044;-68
2023/09/08 10:45:49;;;;;;;7.47;3.88;;;;;;;;;;5056710;28;20047;-68
2023/09/08 10:48:15;;;;;;;8.32;3.95;;;;;;;;;;5056012;28;20046;-68
2023/09/08 10:50:42;;;;;;;9.07;3.90;;;;;;;;;;5055429;28;20421;-68
2023/09/08 10:53:10;;;;;;;6.25;3.47;;;;;;;;;;5056476;28;20032;-69
2023/09/08 10:55:53;;;;;;;10.50;3.88;;;;;;;;;;5053595;28;20815;-69
2023/09/08 10:58:36;;;;;;;7.05;3.85;;;;;;;;;;5054350;28;20031;-69
2023/09/08 11:01:04;;;;;;;7.18;3.80;;;;;;;;;;5055024;28;20047;-68
2023/09/08 11:03:39;;;;;;;6.40;3.80;;;;;;;;;;5053291;28;20115;-68
2023/09/08 11:06:08;;;;;;;6.80;3.75;;;;;;;;;;5054423;28;20105;-68
2023/09/08 11:08:35;;;;;;;7.43;3.75;;;;;;;;;;5055948;28;20107;-68
2023/09/08 11:11:02;;;;;;;11.40;4.15;;;;;;;;;;5055853;28;20052;-68
2023/09/08 11:13:28;;;;;;;7.53;3.60;;;;;;;;;;5054919;28;20025;-68
2023/09/08 11:15:54;;;;;;;8.80;3.80;;;;;;;;;;5056630;28;20044;-68
2023/09/08 11:18:27;;;;;;;5.38;3.55;;;;;;;;;;5056276;28;20043;-68
2023/09/08 11:20:53;;;;;;;7.82;3.63;;;;;;;;;;5055632;28;20037;-68
2023/09/08 11:23:20;;;;;;;9.68;4.05;;;;;;;;;;5057070;28;20036;-69
2023/09/08 11:25:47;;;;;;;8.30;3.80;;;;;;;;;;5055666;28;20051;-68
2023/09/08 11:28:13;;;;;;;8.30;4.03;;;;;;;;;;5056266;28;20102;-68
2023/09/08 11:30:42;;;;;;;9.98;3.85;;;;;;;;;;5056168;28;20115;-69
2023/09/08 11:33:18;;;;;;;7.25;3.92;;;;;;;;;;5055759;28;20048;-68
2023/09/08 11:35:47;;;;;;;10.52;4.07;;;;;;;;;;5055976;28;20036;-68
2023/09/08 11:38:13;;;;;;;6.72;3.90;;;;;;;;;;5055886;28;20028;-68
2023/09/08 11:40:40;;;;;;;7.65;4.35;;;;;;;;;;5055712;28;21380;-68
2023/09/08 11:43:06;;;;;;;8.65;4.88;;;;;;;;;;5055636;28;20042;-68
2023/09/08 11:45:36;;;;;;;12.45;3.80;;;;;;;;;;5056002;28;20028;-68
2023/09/08 11:48:02;;;;;;;6.90;3.30;;;;;;;;;;5055912;28;20028;-68
2023/09/08 11:50:28;;;;;;;8.25;4.18;;;;;;;;;;5055299;28;20047;-68
2023/09/08 11:52:54;;;;;;;7.78;3.53;;;;;;;;;;5056112;28;21063;-68
2023/09/08 11:55:21;;;;;;;17.58;5.03;;;;;;;;;;5055820;28;20020;-69
2023/09/08 11:57:50;;;;;;;18.38;5.05;;;;;;;;;;5055445;28;20119;-69
2023/09/08 12:00:17;;;;;;;8.82;4.53;;;;;;;;;;5055759;28;20093;-69
2023/09/08 12:02:44;;;;;;;6.65;3.85;;;;;;;;;;5057448;28;20028;-68
2023/09/08 12:05:15;;;;;;;8.75;3.65;;;;;;;;;;5058295;28;20077;-68
2023/09/08 12:07:42;;;;;;;7.22;3.85;;;;;;;;;;5057479;28;20675;-68
2023/09/08 12:10:15;;;;;;;7.63;4.00;;;;;;;;;;5054462;28;20047;-68
2023/09/08 12:12:48;;;;;;;7.18;3.72;;;;;;;;;;5058043;28;20032;-68
2023/09/08 12:15:33;;;;;;;7.40;3.40;;;;;;;;;;5059572;28;20355;-69
2023/09/08 12:17:59;;;;;;;8.23;4.00;;;;;;;;;;5058863;28;20620;-69
2023/09/08 12:20:25;;;;;;;6.85;3.50;;;;;;;;;;5058257;28;20075;-69
2023/09/08 12:22:52;;;;;;;7.72;3.30;;;;;;;;;;5058838;28;20481;-68
2023/09/08 12:25:18;;;;;;;7.47;3.40;;;;;;;;;;5058844;28;20020;-68
2023/09/08 12:27:50;;;;;;;7.93;3.50;;;;;;;;;;5059097;28;20040;-69
2023/09/08 12:30:20;;;;;;;6.72;3.33;;;;;;;;;;5058853;28;20067;-69
2023/09/08 12:32:50;;;;;;;7.35;3.80;;;;;;;;;;5059031;28;20044;-69
2023/09/08 12:35:22;;;;;;;6.50;3.25;;;;;;;;;;5059118;28;20510;-69
2023/09/08 12:37:52;;;;;;;6.63;3.35;;;;;;;;;;5057972;28;20032;-68
2023/09/08 12:40:19;;;;;;;7.82;3.70;;;;;;;;;;5058899;28;20197;-68
2023/09/08 12:42:45;;;;;;;8.07;3.78;;;;;;;;;;5057700;28;20036;-68
2023/09/08 12:45:11;;;;;;;5.05;3.00;;;;;;;;;;5059244;28;20071;-68
2023/09/08 12:47:37;;;;;;;8.43;3.33;;;;;;;;;;5059345;28;20081;-68
2023/09/08 12:50:04;;;;;;;6.07;3.47;;;;;;;;;;5058801;28;20028;-69
2023/09/08 12:52:31;;;;;;;7.03;3.58;;;;;;;;;;5058778;28;20799;-69
2023/09/08 12:54:57;;;;;;;4.80;2.97;;;;;;;;;;5058035;28;20039;-68
2023/09/08 12:57:23;;;;;;;7.22;3.55;;;;;;;;;;5058500;28;20123;-68
2023/09/08 12:59:51;;;;;;;7.63;3.97;;;;;;;;;;5058811;28;20047;-69
2023/09/08 13:02:17;;;;;;;7.10;3.38;;;;;;;;;;5059027;28;20068;-69
2023/09/08 13:04:48;;;;;;;13.23;3.70;;;;;;;;;;5058189;28;20075;-68
2023/09/08 13:07:15;;;;;;;5.20;3.33;;;;;;;;;;5055014;28;20036;-69
2023/09/08 13:09:41;;;;;;;6.75;3.40;;;;;;;;;;5053871;28;20032;-69
2023/09/08 13:12:08;;;;;;;7.45;3.92;;;;;;;;;;5056294;28;20032;-69
2023/09/08 13:14:37;;;;;;;5.40;3.40;;;;;;;;;;5054382;28;20036;-69
2023/09/08 13:17:04;;;;;;;6.03;3.30;;;;;;;;;;5056851;28;20032;-68
2023/09/08 13:19:30;;;;;;;5.88;3.20;;;;;;;;;;5056796;28;20445;-69
2023/09/08 13:21:56;;;;;;;5.65;3.33;;;;;;;;;;5058141;28;20799;-69
2023/09/08 13:24:22;;;;;;;6.00;3.22;;;;;;;;;;5057961;28;20032;-69
2023/09/08 13:26:48;;;;;;;9.02;3.42;;;;;;;;;;5058436;28;20032;-69
2023/09/08 13:29:14;;;;;;;5.32;3.20;;;;;;;;;;5057959;28;20464;-69
2023/09/08 13:31:40;;;;;;;6.82;4.00;;;;;;;;;;5057927;28;20799;-69
2023/09/08 13:34:06;;;;;;;7.15;3.13;;;;;;;;;;5057490;28;20083;-69
2023/09/08 13:36:33;;;;;;;6.10;3.33;;;;;;;;;;5058347;28;20059;-68
2023/09/08 13:38:59;;;;;;;10.40;4.30;;;;;;;;;;5058009;28;20989;-69
2023/09/08 13:41:25;;;;;;;6.70;3.55;;;;;;;;;;5057118;28;20500;-69
2023/09/08 13:43:51;;;;;;;7.13;3.28;;;;;;;;;;5057675;28;20710;-69
2023/09/08 13:46:17;;;;;;;6.05;2.95;;;;;;;;;;5057359;28;20044;-69
2023/09/08 13:48:43;;;;;;;7.10;3.15;;;;;;;;;;5057281;28;20655;-69
2023/09/08 13:51:09;;;;;;;8.07;3.40;;;;;;;;;;5057242;28;20483;-69
2023/09/08 13:53:36;;;;;;;5.78;3.40;;;;;;;;;;5057547;28;20073;-69
2023/09/08 13:56:04;;;;;;;7.53;3.53;;;;;;;;;;5057456;28;21694;-69
2023/09/08 13:58:30;;;;;;;6.65;3.28;;;;;;;;;;5057103;28;20075;-69
2023/09/08 14:00:56;;;;;;;5.38;3.15;;;;;;;;;;5057596;28;20036;-69
2023/09/08 14:03:22;;;;;;;9.43;3.35;;;;;;;;;;5057535;28;20044;-69
2023/09/08 14:05:48;;;;;;;5.50;3.40;;;;;;;;;;5056533;28;20032;-69
2023/09/08 14:08:14;;;;;;;9.32;3.47;;;;;;;;;;5056856;28;20043;-69
2023/09/08 14:10:41;;;;;;;7.97;3.45;;;;;;;;;;5057069;28;20105;-69
2023/09/08 14:13:07;;;;;;;7.15;2.97;;;;;;;;;;5057191;28;21147;-69
2023/09/08 14:15:33;;;;;;;5.43;3.25;;;;;;;;;;5056882;28;20491;-69
2023/09/08 14:17:59;;;;;;;8.77;3.28;;;;;;;;;;5057147;28;20086;-69
2023/09/08 14:20:25;;;;;;;6.28;2.72;;;;;;;;;;5057340;28;20028;-69
2023/09/08 14:22:52;;;;;;;7.32;3.13;;;;;;;;;;5056453;28;20040;-69
2023/09/08 14:25:18;;;;;;;9.60;3.58;;;;;;;;;;5053578;28;20032;-69
2023/09/08 14:27:44;;;;;;;6.15;3.03;;;;;;;;;;5054863;28;20040;-69
2023/09/08 14:30:10;;;;;;;6.82;3.40;;;;;;;;;;5056597;28;20048;-69
2023/09/08 14:32:36;;;;;;;5.97;3.15;;;;;;;;;;5054421;28;20065;-69
2023/09/08 14:35:02;;;;;;;6.95;3.22;;;;;;;;;;5038454;28;20036;-69